CheckWX is a tool to help pilots better visualize weather data.  It is not intended as a substitute for an official pre-flight weather briefing.

20:12:08 UTC

KBPT METAR
Jack Brooks Regional Airport
Beaumont/Port Arthur, Texas, USA
Current

19 mins ago

KBPT 231953Z 12015G22KT 10SM SCT023 23/19 A3000 RMK AO2 RAB10E22 SLP157 P0000 T02280189
Observed
Apr-23 @ 19:53 UTC
Wind
  • 120° at 15 KTS
  • Gusting to 22 KTS
Visibility
10 SM
Flight Rules
VFR
Cloud Levels
  • Scattered at 2,300' AGL
Temperature
23°C / 73°F
Dewpoint
19°C / 66°F
Humidity
78%
Altimeter
30" Hg
Pressure
1015.92 hPa
Current Rain
0.01"
Previous

1 hour ago

KBPT 231853Z 12010KT 10SM FEW017 FEW026 SCT120 23/18 A3003 RMK AO2 SLP168 T02280183
Observed
Apr-23 @ 18:53 UTC
Wind
  • 120° at 10 KTS
Visibility
10 SM
Flight Rules
VFR
Cloud Levels
  • Few at 1,700' AGL
  • Few at 2,600' AGL
  • Scattered at 12,000' AGL
Temperature
23°C / 73°F
Dewpoint
18°C / 64°F
Humidity
74%
Altimeter
30.03" Hg
Pressure
1016.92 hPa
Previous

2 hours ago

KBPT 231753Z 14011KT 10SM SCT019 BKN033 23/18 A3006 RMK AO2 SLP180 T02330183 10233 20211 58006
Observed
Apr-23 @ 17:53 UTC
Wind
  • 140° at 11 KTS
Visibility
10 SM
Flight Rules
VFR
Cloud Levels
  • Scattered at 1,900' AGL
  • Broken at 3,300' AGL
Temperature
23°C / 73°F
Dewpoint
18°C / 64°F
Humidity
74%
Altimeter
30.06" Hg
Pressure
1017.92 hPa